createdAt,value
2019-02-08T00:02:16.232Z,4.70
2019-02-08T00:04:56.990Z,4.70
2019-02-08T00:07:39.570Z,4.70
2019-02-08T00:10:20.224Z,4.70
2019-02-08T00:13:00.967Z,4.70
2019-02-08T00:15:43.750Z,4.70
2019-02-08T00:18:26.161Z,4.70
2019-02-08T00:21:08.460Z,4.80
2019-02-08T00:23:52.162Z,4.80
2019-02-08T00:26:33.970Z,4.80
2019-02-08T00:29:15.532Z,4.80
2019-02-08T00:31:56.140Z,4.90
2019-02-08T00:34:37.645Z,4.80
2019-02-08T00:37:18.161Z,4.80
2019-02-08T00:40:02.563Z,4.80
2019-02-08T00:42:43.484Z,4.80
2019-02-08T00:45:24.021Z,4.80
2019-02-08T00:48:04.943Z,4.80
2019-02-08T00:50:47.929Z,4.80
2019-02-08T00:53:33.364Z,4.80
2019-02-08T00:56:11.702Z,4.90
2019-02-08T00:58:52.282Z,4.90
2019-02-08T01:01:32.781Z,4.90
2019-02-08T01:04:13.335Z,4.90
2019-02-08T01:06:53.831Z,4.80
2019-02-08T01:09:35.911Z,4.80
2019-02-08T01:12:16.877Z,4.90
2019-02-08T01:14:58.088Z,4.90
2019-02-08T01:17:38.652Z,4.90
2019-02-08T01:20:19.546Z,4.80
2019-02-08T01:23:00.078Z,4.80
2019-02-08T01:25:40.912Z,4.80
2019-02-08T01:28:23.861Z,4.80
2019-02-08T01:31:06.462Z,4.90
2019-02-08T01:33:49.643Z,4.90
2019-02-08T01:36:32.100Z,4.90
2019-02-08T01:42:27.374Z,4.90
2019-02-08T01:45:12.220Z,4.90
2019-02-08T01:47:52.975Z,4.90
2019-02-08T01:50:36.338Z,4.90
2019-02-08T01:56:03.355Z,4.90
2019-02-08T01:58:46.087Z,4.90
2019-02-08T02:01:27.061Z,4.90
2019-02-08T02:04:08.063Z,4.90
2019-02-08T02:06:48.766Z,4.90
2019-02-08T02:09:29.927Z,5.00
2019-02-08T02:12:11.792Z,5.00
2019-02-08T02:14:52.903Z,5.00
2019-02-08T02:17:33.488Z,5.00
2019-02-08T02:20:13.850Z,5.00
2019-02-08T02:22:54.827Z,5.00
2019-02-08T02:25:35.790Z,5.00
2019-02-08T02:28:16.429Z,5.00
2019-02-08T02:30:57.204Z,5.00
2019-02-08T02:33:38.008Z,5.00
2019-02-08T02:36:20.380Z,5.10
2019-02-08T02:39:01.442Z,5.00
2019-02-08T02:41:41.947Z,5.00
2019-02-08T02:44:24.862Z,5.00
2019-02-08T02:47:05.399Z,5.00
2019-02-08T02:49:46.427Z,5.00
2019-02-08T02:52:27.564Z,5.00
2019-02-08T02:55:08.186Z,5.00
2019-02-08T02:57:48.796Z,5.00
2019-02-08T03:00:29.610Z,5.10
2019-02-08T03:03:10.400Z,5.00
2019-02-08T03:05:51.012Z,5.00
2019-02-08T03:08:31.570Z,5.00
2019-02-08T03:11:12.798Z,5.00
2019-02-08T03:13:55.109Z,4.90
2019-02-08T03:16:36.211Z,4.90
2019-02-08T03:19:17.644Z,4.90
2019-02-08T03:21:58.655Z,4.80
2019-02-08T03:24:38.849Z,4.80
2019-02-08T03:27:19.522Z,4.70
2019-02-08T03:30:00.017Z,4.70
2019-02-08T03:32:41.244Z,4.70
2019-02-08T03:35:24.359Z,4.70
2019-02-08T03:40:56.366Z,4.70
2019-02-08T03:43:38.445Z,4.70
2019-02-08T03:46:20.831Z,4.70
2019-02-08T03:49:03.083Z,4.60
2019-02-08T03:51:43.632Z,4.60
2019-02-08T03:54:24.300Z,4.60
2019-02-08T03:57:06.911Z,4.60
2019-02-08T03:59:47.801Z,4.50
2019-02-08T04:02:30.165Z,4.50
2019-02-08T04:07:55.137Z,4.50
2019-02-08T04:10:35.749Z,4.40
2019-02-08T04:13:16.512Z,4.40
2019-02-08T04:15:58.713Z,4.40
2019-02-08T04:18:39.837Z,4.40
2019-02-08T04:21:23.199Z,4.40
2019-02-08T04:24:05.261Z,4.40
2019-02-08T04:26:46.411Z,4.40
2019-02-08T04:29:27.369Z,4.40
2019-02-08T04:34:51.999Z,4.40
2019-02-08T04:37:34.283Z,4.30
2019-02-08T04:40:16.023Z,4.30
2019-02-08T04:42:57.094Z,4.30
2019-02-08T04:45:38.195Z,4.30
2019-02-08T04:48:18.978Z,4.20
2019-02-08T04:50:59.431Z,4.20
2019-02-08T04:53:40.861Z,4.20
2019-02-08T04:56:23.893Z,4.30
2019-02-08T04:59:06.163Z,4.20
2019-02-08T05:01:48.350Z,4.20
2019-02-08T05:04:29.078Z,4.10
2019-02-08T05:07:09.998Z,4.20
2019-02-08T05:09:52.678Z,4.10
2019-02-08T05:12:33.692Z,4.10
2019-02-08T05:15:14.452Z,4.10
2019-02-08T05:17:57.399Z,4.10
2019-02-08T05:20:40.102Z,4.10
2019-02-08T05:23:20.938Z,4.10
2019-02-08T05:26:03.147Z,4.10
2019-02-08T05:28:46.488Z,4.10
2019-02-08T05:31:29.445Z,4.10
2019-02-08T05:34:10.244Z,4.10
2019-02-08T05:36:52.871Z,4.10
2019-02-08T05:39:33.572Z,4.10
2019-02-08T05:42:14.241Z,4.10
2019-02-08T05:44:57.910Z,4.10
2019-02-08T05:47:39.139Z,4.20
2019-02-08T05:50:23.988Z,4.20
2019-02-08T05:53:04.506Z,4.20
2019-02-08T05:55:48.597Z,4.30
2019-02-08T05:58:32.243Z,4.30
2019-02-08T06:01:14.428Z,4.30
2019-02-08T06:03:57.413Z,4.30
2019-02-08T06:06:37.858Z,4.30
2019-02-08T06:09:21.532Z,4.30
2019-02-08T06:14:50.651Z,4.30
2019-02-08T06:20:16.828Z,4.30
2019-02-08T06:22:57.708Z,4.40
2019-02-08T06:25:41.509Z,4.30
2019-02-08T06:28:21.760Z,4.30
2019-02-08T06:31:02.673Z,4.30
2019-02-08T06:33:43.339Z,4.20
2019-02-08T06:36:24.035Z,4.20
2019-02-08T06:39:04.674Z,4.30
2019-02-08T06:44:29.293Z,4.20
2019-02-08T06:47:11.822Z,4.20
2019-02-08T06:52:47.333Z,4.20
2019-02-08T06:55:29.774Z,4.20
2019-02-08T07:01:17.594Z,4.20
2019-02-08T07:06:50.714Z,4.20
2019-02-08T07:09:35.574Z,4.20
2019-02-08T07:15:25.106Z,4.20
2019-02-08T07:18:12.738Z,4.20
2019-02-08T07:21:34.139Z,4.20
2019-02-08T07:24:43.008Z,4.10
2019-02-08T07:31:05.020Z,4.10
2019-02-08T07:34:12.215Z,4.10
2019-02-08T07:40:31.624Z,4.10
2019-02-08T07:43:26.133Z,4.10
2019-02-08T07:55:26.297Z,4.30
2019-02-08T08:01:05.264Z,4.40
2019-02-08T08:03:48.313Z,4.40
2019-02-08T08:06:32.532Z,4.40
2019-02-08T08:12:01.243Z,4.60
2019-02-08T08:17:46.639Z,4.80
2019-02-08T08:23:42.025Z,4.90
2019-02-08T08:26:24.141Z,4.90
2019-02-08T08:29:09.188Z,5.00
2019-02-08T08:31:53.994Z,5.10
2019-02-08T08:34:35.457Z,5.10
2019-02-08T08:37:16.130Z,5.20
2019-02-08T08:39:56.741Z,5.30
2019-02-08T08:42:40.247Z,5.40
2019-02-08T08:48:11.600Z,5.70
2019-02-08T08:50:52.282Z,5.90
2019-02-08T08:53:35.692Z,6.00
2019-02-08T08:56:15.726Z,6.10
2019-02-08T08:58:56.319Z,6.20
2019-02-08T09:01:37.002Z,6.30
2019-02-08T09:04:18.652Z,6.40
2019-02-08T09:07:01.071Z,6.50
2019-02-08T09:09:41.987Z,6.60
2019-02-08T09:12:25.102Z,6.60
2019-02-08T09:17:55.203Z,6.70
2019-02-08T09:20:36.524Z,6.70
2019-02-08T09:23:19.167Z,6.70
2019-02-08T09:26:00.424Z,6.80
2019-02-08T09:28:43.818Z,6.80
2019-02-08T09:31:25.389Z,6.90
2019-02-08T09:34:07.733Z,6.90
2019-02-08T09:36:48.896Z,6.90
2019-02-08T09:39:32.691Z,7.00
2019-02-08T09:42:14.991Z,7.00
2019-02-08T09:44:56.182Z,7.10
2019-02-08T09:47:36.564Z,7.20
2019-02-08T09:50:17.466Z,7.20
2019-02-08T09:52:59.456Z,7.20
2019-02-08T09:58:25.023Z,7.40
2019-02-08T10:01:05.630Z,7.50
2019-02-08T10:03:46.549Z,7.50
2019-02-08T10:06:27.494Z,7.50
2019-02-08T10:09:08.167Z,7.50
2019-02-08T10:11:48.843Z,7.60
2019-02-08T10:14:55.961Z,7.60
2019-02-08T10:18:04.462Z,7.70
2019-02-08T10:21:12.660Z,7.80
2019-02-08T10:24:35.680Z,7.90
2019-02-08T10:27:30.276Z,8.00
2019-02-08T10:33:54.168Z,8.00
2019-02-08T10:39:52.035Z,8.20
2019-02-08T10:48:40.355Z,8.40
2019-02-08T10:51:48.783Z,8.40
2019-02-08T10:54:57.156Z,8.50
2019-02-08T10:58:04.274Z,8.40
2019-02-08T11:01:12.564Z,8.50
2019-02-08T11:06:45.069Z,8.50
2019-02-08T11:09:26.611Z,8.60
2019-02-08T11:12:07.476Z,8.70
2019-02-08T11:17:40.583Z,8.70
2019-02-08T11:20:21.415Z,8.80
2019-02-08T11:23:03.969Z,8.90
2019-02-08T11:28:32.011Z,8.90
2019-02-08T11:31:12.993Z,8.90
2019-02-08T11:33:55.514Z,9.00
2019-02-08T11:36:36.420Z,9.00
2019-02-08T11:39:17.011Z,9.10
2019-02-08T11:41:59.168Z,9.10
2019-02-08T11:44:42.918Z,9.10
2019-02-08T11:50:07.956Z,9.30
2019-02-08T11:58:23.002Z,9.30
2019-02-08T12:01:04.135Z,9.30
2019-02-08T12:03:45.610Z,9.30
2019-02-08T12:06:26.336Z,9.40
2019-02-08T12:14:42.514Z,9.60
2019-02-08T12:17:23.165Z,9.60
2019-02-08T12:20:03.753Z,9.50
2019-02-08T12:22:44.231Z,9.50
2019-02-08T12:25:25.170Z,9.50
2019-02-08T12:28:05.597Z,9.50
2019-02-08T12:33:41.229Z,9.40
2019-02-08T12:36:21.764Z,9.40
2019-02-08T12:39:02.138Z,9.30
2019-02-08T12:44:40.904Z,9.40
2019-02-08T12:53:00.850Z,9.40
2019-02-08T12:55:41.588Z,9.50
2019-02-08T13:01:11.134Z,9.80
2019-02-08T13:03:51.938Z,10.00
2019-02-08T13:06:32.454Z,10.00
2019-02-08T13:17:47.560Z,10.10
2019-02-08T13:20:31.778Z,10.10
2019-02-08T13:23:12.427Z,10.20
2019-02-08T13:25:53.058Z,10.10
2019-02-08T13:31:20.075Z,10.10
2019-02-08T13:34:00.986Z,10.10
2019-02-08T13:36:41.551Z,10.10
2019-02-08T13:39:22.243Z,10.00
2019-02-08T13:42:07.430Z,10.00
2019-02-08T13:44:48.471Z,10.00
2019-02-08T13:47:30.538Z,10.00
2019-02-08T13:52:56.631Z,10.00
2019-02-08T13:58:26.151Z,9.90
2019-02-08T14:01:11.055Z,9.90
2019-02-08T14:03:53.567Z,9.90
2019-02-08T14:06:34.427Z,9.90
2019-02-08T14:09:16.623Z,9.90
2019-02-08T14:11:59.601Z,9.90
2019-02-08T14:14:40.300Z,9.90
2019-02-08T14:17:20.840Z,9.90
2019-02-08T14:20:01.637Z,10.00
2019-02-08T14:22:42.348Z,9.90
2019-02-08T14:25:25.237Z,10.00
2019-02-08T14:27:53.718Z,10.00
2019-02-08T14:30:55.822Z,10.00
2019-02-08T14:33:31.848Z,10.00
2019-02-08T14:36:19.649Z,10.10
2019-02-08T14:39:08.343Z,10.10
2019-02-08T14:41:56.135Z,10.10
2019-02-08T14:44:43.897Z,10.10
2019-02-08T14:47:46.119Z,10.10
2019-02-08T14:50:40.475Z,10.00
2019-02-08T14:53:28.234Z,10.00
2019-02-08T14:56:16.614Z,10.00
2019-02-08T14:59:04.801Z,10.00
2019-02-08T15:04:50.164Z,9.90
2019-02-08T15:07:31.013Z,9.90
2019-02-08T15:10:11.824Z,9.90
2019-02-08T15:12:53.468Z,9.90
2019-02-08T15:15:35.678Z,9.80
2019-02-08T15:18:18.744Z,9.80
2019-02-08T15:21:00.425Z,9.70
2019-02-08T15:23:42.282Z,9.70
2019-02-08T15:26:22.936Z,9.70
2019-02-08T15:29:03.671Z,9.60
2019-02-08T15:31:44.271Z,9.60
2019-02-08T15:34:28.082Z,9.50
2019-02-08T15:37:08.690Z,9.50
2019-02-08T15:39:49.707Z,9.50
2019-02-08T15:42:30.422Z,9.40
2019-02-08T15:45:10.948Z,9.40
2019-02-08T15:47:51.841Z,9.40
2019-02-08T15:50:32.482Z,9.30
2019-02-08T15:53:13.309Z,9.30
2019-02-08T15:55:54.378Z,9.30
2019-02-08T15:58:34.854Z,9.30
2019-02-08T16:01:15.483Z,9.20
2019-02-08T16:03:56.507Z,9.20
2019-02-08T16:06:38.288Z,9.10
2019-02-08T16:09:19.219Z,9.10
2019-02-08T16:12:01.218Z,9.00
2019-02-08T16:14:41.828Z,9.00
2019-02-08T16:17:22.447Z,9.00
2019-02-08T16:20:03.054Z,8.90
2019-02-08T16:22:43.548Z,8.90
2019-02-08T16:25:24.158Z,8.80
2019-02-08T16:28:04.939Z,8.80
2019-02-08T16:30:45.340Z,8.80
2019-02-08T16:33:26.072Z,8.70
2019-02-08T16:36:06.600Z,8.70
2019-02-08T16:38:47.008Z,8.60
2019-02-08T16:41:27.521Z,8.60
2019-02-08T16:44:09.405Z,8.60
2019-02-08T16:46:49.960Z,8.50
2019-02-08T16:49:30.444Z,8.40
2019-02-08T16:52:13.527Z,8.40
2019-02-08T16:54:56.930Z,8.30
2019-02-08T16:57:37.571Z,8.30
2019-02-08T17:00:18.503Z,8.30
2019-02-08T17:02:59.548Z,8.20
2019-02-08T17:05:40.415Z,8.20
2019-02-08T17:14:28.764Z,8.20
2019-02-08T17:17:09.643Z,8.00
2019-02-08T17:19:50.454Z,8.00
2019-02-08T17:22:30.886Z,7.90
2019-02-08T17:25:11.569Z,7.90
2019-02-08T17:27:55.296Z,7.80
2019-02-08T17:30:35.829Z,7.80
2019-02-08T17:36:01.068Z,7.70
2019-02-08T17:38:41.578Z,7.70
2019-02-08T17:41:22.276Z,7.70
2019-02-08T17:44:03.106Z,7.60
2019-02-08T17:46:43.415Z,7.60
2019-02-08T17:49:23.923Z,7.60
2019-02-08T17:52:05.512Z,7.50
2019-02-08T17:54:46.441Z,7.50
2019-02-08T17:57:27.566Z,7.50
2019-02-08T18:00:08.649Z,7.40
2019-02-08T18:02:49.067Z,7.40
2019-02-08T18:05:29.857Z,7.40
2019-02-08T18:08:10.572Z,7.30
2019-02-08T18:10:51.230Z,7.30
2019-02-08T18:13:31.722Z,7.30
2019-02-08T18:16:12.318Z,7.30
2019-02-08T18:18:53.454Z,7.30
2019-02-08T18:21:34.202Z,7.30
2019-02-08T18:24:14.790Z,7.30
2019-02-08T18:26:55.467Z,7.30
2019-02-08T18:29:35.951Z,7.30
2019-02-08T18:32:16.887Z,7.30
2019-02-08T18:34:57.718Z,7.30
2019-02-08T18:37:39.280Z,7.30
2019-02-08T18:40:22.493Z,7.20
2019-02-08T18:43:02.834Z,7.20
2019-02-08T18:45:43.875Z,7.20
2019-02-08T18:48:24.459Z,7.20
2019-02-08T18:51:04.818Z,7.10
2019-02-08T18:53:45.319Z,7.10
2019-02-08T18:56:26.373Z,7.10
2019-02-08T18:59:07.120Z,7.00
2019-02-08T19:01:47.339Z,7.00
2019-02-08T19:04:28.454Z,7.00
2019-02-08T19:07:09.433Z,6.90
2019-02-08T19:09:50.245Z,6.90
2019-02-08T19:12:30.999Z,6.90
2019-02-08T19:15:13.071Z,6.80
2019-02-08T19:17:54.010Z,6.80
2019-02-08T19:20:34.570Z,6.80
2019-02-08T19:23:15.245Z,6.70
2019-02-08T19:28:47.226Z,6.70
2019-02-08T19:31:27.795Z,6.70
2019-02-08T19:36:52.931Z,6.70
2019-02-08T19:39:34.278Z,6.60
2019-02-08T19:42:14.654Z,6.50
2019-02-08T19:44:55.471Z,6.50
2019-02-08T19:47:36.108Z,6.50
2019-02-08T19:50:16.822Z,6.50
2019-02-08T19:58:39.414Z,6.40
2019-02-08T20:01:19.962Z,6.40
2019-02-08T20:06:44.507Z,6.30
2019-02-08T20:09:25.055Z,6.30
2019-02-08T20:12:06.914Z,6.30
2019-02-08T20:14:50.688Z,6.20
2019-02-08T20:17:31.462Z,6.20
2019-02-08T20:20:11.968Z,6.00
2019-02-08T20:22:52.446Z,6.10
2019-02-08T20:25:33.130Z,6.00
2019-02-08T20:28:13.817Z,5.90
2019-02-08T20:30:54.186Z,5.80
2019-02-08T20:33:35.051Z,5.80
2019-02-08T20:36:15.640Z,5.70
2019-02-08T20:38:56.079Z,5.70
2019-02-08T20:41:36.758Z,5.80
2019-02-08T20:44:17.099Z,5.80
2019-02-08T20:46:57.738Z,5.90
2019-02-08T20:49:37.906Z,5.80
2019-02-08T20:52:18.726Z,5.80
2019-02-08T20:54:59.440Z,5.70
2019-02-08T20:57:41.032Z,5.70
2019-02-08T21:00:22.299Z,5.70
2019-02-08T21:05:53.912Z,5.50
2019-02-08T21:11:18.574Z,5.50
2019-02-08T21:13:59.304Z,5.50
2019-02-08T21:16:40.317Z,5.50
2019-02-08T21:19:20.710Z,5.50
2019-02-08T21:22:01.412Z,5.10
2019-02-08T21:24:41.820Z,4.80
2019-02-08T21:27:22.617Z,4.80
2019-02-08T21:30:03.247Z,4.70
2019-02-08T21:32:44.134Z,4.70
2019-02-08T21:35:24.912Z,4.80
2019-02-08T21:38:05.570Z,4.90
2019-02-08T21:40:45.866Z,4.90
2019-02-08T21:43:26.628Z,4.90
2019-02-08T21:46:07.716Z,5.00
2019-02-08T21:48:48.093Z,5.10
2019-02-08T21:54:13.844Z,5.00
2019-02-08T21:56:54.958Z,5.10
2019-02-08T21:59:37.696Z,5.00
2019-02-08T22:02:18.885Z,5.10
2019-02-08T22:04:59.305Z,5.20
2019-02-08T22:07:40.095Z,5.10
2019-02-08T22:10:20.845Z,5.10
2019-02-08T22:13:04.655Z,5.00
2019-02-08T22:15:45.643Z,5.00
2019-02-08T22:18:26.095Z,4.80
2019-02-08T22:21:07.428Z,4.80
2019-02-08T22:23:47.881Z,4.70
2019-02-08T22:26:28.743Z,4.70
2019-02-08T22:29:14.059Z,4.40
2019-02-08T22:31:52.103Z,4.30
2019-02-08T22:34:32.942Z,4.40
2019-02-08T22:37:13.626Z,4.20
2019-02-08T22:39:54.331Z,4.30
2019-02-08T22:42:35.255Z,4.40
2019-02-08T22:47:59.868Z,4.50
2019-02-08T22:53:25.607Z,4.70
2019-02-08T22:56:06.336Z,4.70
2019-02-08T23:01:43.926Z,4.70
2019-02-08T23:04:24.822Z,4.70
2019-02-08T23:07:07.478Z,4.80
2019-02-08T23:09:51.023Z,4.80
2019-02-08T23:12:31.885Z,4.70
2019-02-08T23:15:12.746Z,4.60
2019-02-08T23:17:53.551Z,4.40
2019-02-08T23:20:34.082Z,4.40
2019-02-08T23:23:14.958Z,4.40
2019-02-08T23:25:55.693Z,4.40
2019-02-08T23:28:37.782Z,4.30
2019-02-08T23:31:18.702Z,4.20
2019-02-08T23:33:59.411Z,4.00
2019-02-08T23:36:40.792Z,3.80
2019-02-08T23:42:12.334Z,4.10
2019-02-08T23:44:40.801Z,4.50
2019-02-08T23:47:28.871Z,4.70
2019-02-08T23:53:37.843Z,5.10
2019-02-08T23:59:39.122Z,5.10
